createdAt,value
2022-11-06T00:01:34.139Z,51.47
2022-11-06T00:04:07.046Z,51.44
2022-11-06T00:06:40.067Z,51.41
2022-11-06T00:09:13.080Z,51.47
2022-11-06T00:11:46.076Z,51.43
2022-11-06T00:14:24.946Z,51.48
2022-11-06T00:16:57.945Z,51.58
2022-11-06T00:19:31.080Z,51.46
2022-11-06T00:22:04.071Z,51.53
2022-11-06T00:24:37.119Z,51.65
2022-11-06T00:27:10.108Z,51.68
2022-11-06T00:29:43.168Z,51.65
2022-11-06T00:32:16.033Z,51.65
2022-11-06T00:34:49.075Z,51.70
2022-11-06T00:37:22.191Z,51.64
2022-11-06T00:39:55.038Z,51.61
2022-11-06T00:42:28.158Z,51.68
2022-11-06T00:45:01.070Z,51.65
2022-11-06T00:47:34.165Z,51.67
2022-11-06T00:50:07.028Z,51.63
2022-11-06T00:52:40.145Z,51.72
2022-11-06T00:55:13.178Z,51.74
2022-11-06T00:57:46.142Z,51.78
2022-11-06T01:00:19.330Z,51.78
2022-11-06T01:02:52.351Z,51.78
2022-11-06T01:05:25.125Z,51.76
2022-11-06T01:07:58.162Z,51.81
2022-11-06T01:10:31.201Z,51.88
2022-11-06T01:13:04.214Z,51.87
2022-11-06T01:15:37.131Z,51.94
2022-11-06T01:18:10.366Z,51.90
2022-11-06T01:20:42.944Z,51.85
2022-11-06T01:23:16.120Z,51.88
2022-11-06T01:25:49.180Z,51.85
2022-11-06T01:28:22.208Z,51.85
2022-11-06T01:30:55.227Z,51.84
2022-11-06T01:33:28.196Z,51.84
2022-11-06T01:36:01.126Z,51.84
2022-11-06T01:38:34.207Z,51.86
2022-11-06T01:41:07.099Z,51.86
2022-11-06T01:43:40.203Z,51.85
2022-11-06T01:46:13.163Z,51.81
2022-11-06T01:48:46.152Z,51.81
2022-11-06T01:51:19.230Z,51.81
2022-11-06T01:53:51.947Z,51.79
2022-11-06T01:56:25.240Z,51.81
2022-11-06T01:58:58.155Z,51.80
2022-11-06T02:01:31.418Z,51.87
2022-11-06T02:04:04.185Z,51.81
2022-11-06T02:06:37.300Z,51.82
2022-11-06T02:09:10.227Z,51.76
2022-11-06T02:11:43.228Z,51.74
2022-11-06T02:14:16.287Z,51.75
2022-11-06T02:16:49.216Z,51.76
2022-11-06T02:19:22.272Z,51.76
2022-11-06T02:21:55.287Z,51.79
2022-11-06T02:24:28.190Z,51.85
2022-11-06T02:27:01.274Z,51.87
2022-11-06T02:29:34.240Z,51.90
2022-11-06T02:32:07.351Z,51.88
2022-11-06T02:34:40.227Z,51.87
2022-11-06T02:37:13.203Z,51.85
2022-11-06T02:39:46.220Z,51.86
2022-11-06T02:42:19.279Z,51.98
2022-11-06T02:44:52.304Z,51.93
2022-11-06T02:47:25.291Z,51.99
2022-11-06T02:49:58.263Z,51.93
2022-11-06T02:52:31.344Z,51.93
2022-11-06T02:55:04.300Z,51.98
2022-11-06T02:57:37.348Z,51.90
2022-11-06T03:00:10.280Z,51.93
2022-11-06T03:02:43.525Z,51.95
2022-11-06T03:05:16.252Z,51.90
2022-11-06T03:07:49.354Z,51.88
2022-11-06T03:10:22.420Z,51.97
2022-11-06T03:12:55.361Z,51.92
2022-11-06T03:15:28.233Z,51.91
2022-11-06T03:18:01.393Z,51.93
2022-11-06T03:20:34.281Z,51.89
2022-11-06T03:23:07.266Z,51.92
2022-11-06T03:25:40.320Z,51.90
2022-11-06T03:28:13.706Z,51.92
2022-11-06T03:30:46.302Z,51.88
2022-11-06T03:33:19.290Z,51.88
2022-11-06T03:35:52.413Z,51.90
2022-11-06T03:38:25.383Z,51.90
2022-11-06T03:40:58.319Z,51.90
2022-11-06T03:43:45.374Z,51.93
2022-11-06T03:46:18.435Z,51.92
2022-11-06T03:48:51.391Z,51.93
2022-11-06T03:51:24.418Z,51.89
2022-11-06T03:53:57.363Z,51.89
2022-11-06T03:56:30.449Z,51.91
2022-11-06T03:59:03.478Z,51.94
2022-11-06T04:01:36.659Z,51.92
2022-11-06T04:04:09.407Z,51.87
2022-11-06T04:06:42.373Z,51.89
2022-11-06T04:09:15.389Z,51.90
2022-11-06T04:11:48.453Z,51.90
2022-11-06T04:14:21.342Z,51.91
2022-11-06T04:16:54.433Z,51.94
2022-11-06T04:19:27.458Z,51.88
2022-11-06T04:22:00.418Z,51.88
2022-11-06T04:24:33.336Z,51.87
2022-11-06T04:27:06.493Z,51.86
2022-11-06T04:29:39.431Z,51.85
2022-11-06T04:32:12.382Z,51.87
2022-11-06T04:34:51.382Z,51.87
2022-11-06T04:37:24.473Z,51.88
2022-11-06T04:39:57.409Z,51.84
2022-11-06T04:42:30.508Z,51.87
2022-11-06T04:45:03.488Z,51.90
2022-11-06T04:47:36.461Z,51.88
2022-11-06T04:50:09.492Z,51.90
2022-11-06T04:52:42.445Z,51.90
2022-11-06T04:55:15.531Z,51.84
2022-11-06T04:57:48.394Z,51.89
2022-11-06T05:00:21.511Z,51.85
2022-11-06T05:02:54.407Z,51.82
2022-11-06T05:05:27.495Z,51.83
2022-11-06T05:08:00.539Z,51.83
2022-11-06T05:10:33.495Z,51.82
2022-11-06T05:13:06.551Z,51.85
2022-11-06T05:15:39.361Z,51.81
2022-11-06T05:18:12.856Z,51.82
2022-11-06T05:20:45.687Z,51.84
2022-11-06T05:23:18.505Z,51.83
2022-11-06T05:25:51.503Z,51.82
2022-11-06T05:28:24.461Z,51.85
2022-11-06T05:30:57.523Z,51.87
2022-11-06T05:33:30.578Z,51.89
2022-11-06T05:36:03.582Z,51.87
2022-11-06T05:38:36.572Z,51.86
2022-11-06T05:41:09.487Z,51.84
2022-11-06T05:43:42.602Z,51.85
2022-11-06T05:48:48.496Z,51.85
2022-11-06T05:51:21.617Z,51.86
2022-11-06T05:53:54.585Z,51.83
2022-11-06T05:56:27.712Z,51.82
2022-11-06T05:59:01.529Z,51.81
2022-11-06T06:01:34.726Z,51.82
2022-11-06T06:04:07.600Z,51.83
2022-11-06T06:06:40.568Z,51.84
2022-11-06T06:09:13.624Z,51.84
2022-11-06T06:11:46.640Z,51.83
2022-11-06T06:14:19.536Z,51.83
2022-11-06T06:16:52.611Z,51.83
2022-11-06T06:19:25.622Z,51.83
2022-11-06T06:21:58.721Z,51.89
2022-11-06T06:24:31.739Z,51.83
2022-11-06T06:27:04.659Z,51.84
2022-11-06T06:29:37.561Z,51.85
2022-11-06T06:32:10.571Z,51.85
2022-11-06T06:34:43.596Z,51.82
2022-11-06T06:37:20.189Z,51.82
2022-11-06T06:39:49.681Z,51.81
2022-11-06T06:42:26.030Z,51.92
2022-11-06T06:44:55.685Z,51.92
2022-11-06T06:47:28.577Z,51.89
2022-11-06T06:50:01.709Z,51.90
2022-11-06T06:52:34.683Z,51.88
2022-11-06T06:55:07.582Z,51.88
2022-11-06T06:57:40.461Z,51.92
2022-11-06T07:00:13.718Z,51.91
2022-11-06T07:02:46.696Z,51.91
2022-11-06T07:05:19.689Z,51.95
2022-11-06T07:07:52.707Z,51.95
2022-11-06T07:10:25.466Z,51.90
2022-11-06T07:12:58.475Z,51.99
2022-11-06T07:15:31.360Z,51.97
2022-11-06T07:18:04.440Z,51.98
2022-11-06T07:20:37.417Z,51.98
2022-11-06T07:23:10.475Z,51.93
2022-11-06T07:25:43.708Z,51.97
2022-11-06T07:28:16.884Z,51.99
2022-11-06T07:30:49.489Z,51.92
2022-11-06T07:33:22.505Z,51.58
2022-11-06T07:35:55.523Z,51.10
2022-11-06T07:38:28.439Z,50.16
2022-11-06T07:41:01.373Z,50.21
2022-11-06T07:43:34.524Z,50.28
2022-11-06T07:46:07.481Z,49.78
2022-11-06T07:48:40.449Z,50.01
2022-11-06T07:51:13.406Z,40.95
2022-11-06T07:53:46.580Z,41.77
2022-11-06T07:56:20.001Z,41.41
2022-11-06T07:58:53.534Z,40.50
2022-11-06T08:01:26.931Z,40.00
2022-11-06T08:03:59.696Z,39.60
2022-11-06T08:06:32.739Z,41.37
2022-11-06T08:09:05.671Z,43.64
2022-11-06T08:11:38.676Z,45.55
2022-11-06T08:14:11.425Z,45.34
2022-11-06T08:16:44.605Z,45.74
2022-11-06T08:19:17.622Z,45.93
2022-11-06T08:21:50.597Z,46.42
2022-11-06T08:24:23.661Z,46.64
2022-11-06T08:26:56.574Z,46.91
2022-11-06T08:29:37.012Z,47.53
2022-11-06T08:32:05.820Z,47.71
2022-11-06T08:34:38.740Z,48.08
2022-11-06T08:37:11.726Z,48.11
2022-11-06T08:39:44.660Z,48.22
2022-11-06T08:42:17.736Z,48.42
2022-11-06T08:44:50.809Z,48.50
2022-11-06T08:47:23.888Z,48.45
2022-11-06T08:49:56.478Z,48.61
2022-11-06T08:52:33.902Z,48.79
2022-11-06T08:55:02.792Z,48.81
2022-11-06T08:57:35.772Z,48.83
2022-11-06T09:00:08.883Z,48.98
2022-11-06T09:02:41.926Z,48.98
2022-11-06T09:05:14.800Z,48.99
2022-11-06T09:07:47.774Z,49.12
2022-11-06T09:10:20.747Z,49.10
2022-11-06T09:12:53.514Z,49.17
2022-11-06T09:15:26.717Z,49.02
2022-11-06T09:17:59.799Z,49.03
2022-11-06T09:20:32.615Z,49.07
2022-11-06T09:23:05.791Z,49.12
2022-11-06T09:25:41.859Z,49.15
2022-11-06T09:28:14.875Z,49.13
2022-11-06T09:30:47.938Z,49.22
2022-11-06T09:33:21.893Z,49.13
2022-11-06T09:35:54.573Z,49.33
2022-11-06T09:38:27.878Z,49.38
2022-11-06T09:41:00.851Z,49.39
2022-11-06T09:46:06.597Z,49.48
2022-11-06T09:48:39.800Z,49.54
2022-11-06T09:51:15.791Z,49.49
2022-11-06T09:53:48.561Z,49.52
2022-11-06T09:56:21.939Z,49.61
2022-11-06T09:58:54.567Z,49.61
2022-11-06T10:01:27.916Z,49.65
2022-11-06T10:04:00.887Z,49.66
2022-11-06T10:06:33.878Z,49.61
2022-11-06T10:09:06.962Z,49.62
2022-11-06T10:11:39.903Z,49.65
2022-11-06T10:14:12.587Z,49.62
2022-11-06T10:16:45.871Z,49.69
2022-11-06T10:19:18.789Z,49.68
2022-11-06T10:21:51.960Z,49.65
2022-11-06T10:24:24.872Z,48.41
2022-11-06T10:26:57.738Z,47.13
2022-11-06T10:29:30.764Z,44.86
2022-11-06T10:32:03.825Z,43.85
2022-11-06T10:34:36.626Z,45.48
2022-11-06T10:37:09.947Z,45.61
2022-11-06T10:39:43.001Z,46.20
2022-11-06T10:42:15.969Z,46.53
2022-11-06T10:44:48.962Z,46.83
2022-11-06T10:47:21.846Z,47.01
2022-11-06T10:49:54.965Z,47.18
2022-11-06T10:52:27.982Z,47.32
2022-11-06T10:55:01.063Z,47.45
2022-11-06T11:00:26.953Z,47.67
2022-11-06T11:03:00.015Z,47.74
2022-11-06T11:05:32.907Z,47.86
2022-11-06T11:08:05.940Z,47.97
2022-11-06T11:10:38.842Z,48.02
2022-11-06T11:13:11.962Z,48.04
2022-11-06T11:15:45.109Z,48.16
2022-11-06T11:18:18.396Z,48.20
2022-11-06T11:20:50.881Z,48.20
2022-11-06T11:23:23.960Z,48.28
2022-11-06T11:25:59.938Z,48.35
2022-11-06T11:28:32.922Z,48.39
2022-11-06T11:31:06.189Z,48.37
2022-11-06T11:33:38.831Z,48.43
2022-11-06T11:36:11.996Z,48.50
2022-11-06T11:38:44.901Z,48.47
2022-11-06T11:41:17.759Z,48.53
2022-11-06T11:43:51.317Z,48.63
2022-11-06T11:46:24.913Z,48.60
2022-11-06T11:48:58.118Z,48.60
2022-11-06T11:51:31.817Z,48.59
2022-11-06T11:54:04.991Z,48.62
2022-11-06T11:57:03.031Z,48.61
2022-11-06T11:59:10.753Z,48.57
2022-11-06T12:01:44.067Z,48.61
2022-11-06T12:04:17.069Z,48.64
2022-11-06T12:06:50.042Z,48.68
2022-11-06T12:09:23.149Z,48.70
2022-11-06T12:11:56.068Z,48.70
2022-11-06T12:14:29.048Z,48.77
2022-11-06T12:17:02.229Z,48.75
2022-11-06T12:19:34.778Z,48.77
2022-11-06T12:22:08.046Z,48.79
2022-11-06T12:24:41.258Z,48.84
2022-11-06T12:27:15.105Z,48.90
2022-11-06T12:29:48.145Z,48.93
2022-11-06T12:32:21.093Z,48.91
2022-11-06T12:34:53.812Z,48.92
2022-11-06T12:37:27.206Z,48.94
2022-11-06T12:40:00.125Z,48.83
2022-11-06T12:42:33.130Z,48.80
2022-11-06T12:47:56.139Z,48.73
2022-11-06T12:50:29.074Z,48.69
2022-11-06T12:53:06.121Z,48.72
2022-11-06T12:55:35.107Z,48.75
2022-11-06T12:58:08.061Z,48.81
2022-11-06T13:00:41.145Z,48.86
2022-11-06T13:03:14.198Z,48.92
2022-11-06T13:05:47.169Z,48.95
2022-11-06T13:08:19.893Z,49.04
2022-11-06T13:10:52.855Z,49.05
2022-11-06T13:13:26.042Z,49.07
2022-11-06T13:15:59.153Z,49.10
2022-11-06T13:18:32.078Z,49.12
2022-11-06T13:21:05.142Z,49.17
2022-11-06T13:23:38.127Z,49.22
2022-11-06T13:26:11.090Z,49.24
2022-11-06T13:28:44.146Z,49.23
2022-11-06T13:31:17.047Z,49.29
2022-11-06T13:33:50.221Z,49.28
2022-11-06T13:36:27.067Z,49.29
2022-11-06T13:39:00.027Z,49.31
2022-11-06T13:41:33.179Z,49.32
2022-11-06T13:44:06.084Z,49.33
2022-11-06T13:46:39.036Z,49.38
2022-11-06T13:49:12.113Z,49.35
2022-11-06T13:51:45.130Z,49.34
2022-11-06T13:54:18.241Z,49.40
2022-11-06T13:56:51.184Z,49.35
2022-11-06T13:59:26.502Z,49.40
2022-11-06T14:01:57.253Z,49.41
2022-11-06T14:04:30.374Z,49.43
2022-11-06T14:07:03.340Z,49.44
2022-11-06T14:09:36.246Z,49.42
2022-11-06T14:12:15.365Z,49.39
2022-11-06T14:14:46.295Z,49.39
2022-11-06T14:17:19.337Z,49.39
2022-11-06T14:19:52.374Z,49.36
2022-11-06T14:22:25.245Z,49.34
2022-11-06T14:25:01.619Z,49.33
2022-11-06T14:27:32.264Z,49.32
2022-11-06T14:30:05.181Z,49.31
2022-11-06T14:32:38.264Z,49.32
2022-11-06T14:35:11.398Z,49.29
2022-11-06T14:37:44.290Z,49.30
2022-11-06T14:40:17.392Z,49.29
2022-11-06T14:42:50.336Z,49.27
2022-11-06T14:45:23.318Z,49.26
2022-11-06T14:47:55.995Z,49.27
2022-11-06T14:50:29.143Z,49.27
2022-11-06T14:53:02.192Z,49.32
2022-11-06T14:55:35.207Z,49.37
2022-11-06T14:58:08.297Z,49.38
2022-11-06T15:00:41.208Z,49.44
2022-11-06T15:03:14.018Z,49.46
2022-11-06T15:05:52.167Z,49.50
2022-11-06T15:08:20.284Z,49.50
2022-11-06T15:10:53.217Z,49.49
2022-11-06T15:13:26.297Z,49.51
2022-11-06T15:15:59.332Z,49.53
2022-11-06T15:18:32.348Z,49.53
2022-11-06T15:21:05.367Z,49.55
2022-11-06T15:23:38.230Z,49.59
2022-11-06T15:26:11.086Z,49.58
2022-11-06T15:28:44.400Z,49.62
2022-11-06T15:31:17.474Z,49.64
2022-11-06T15:33:55.331Z,49.65
2022-11-06T15:36:23.472Z,49.61
2022-11-06T15:38:56.359Z,49.64
2022-11-06T15:41:29.462Z,49.67
2022-11-06T15:44:02.289Z,49.64
2022-11-06T15:46:35.473Z,49.67
2022-11-06T15:49:08.405Z,49.67
2022-11-06T15:51:41.259Z,49.70
2022-11-06T15:54:14.615Z,49.74
2022-11-06T15:56:47.186Z,49.72
2022-11-06T15:59:20.361Z,49.73
2022-11-06T16:01:53.397Z,49.75
2022-11-06T16:04:26.247Z,49.79
2022-11-06T16:06:59.151Z,49.76
2022-11-06T16:09:32.479Z,49.75
2022-11-06T16:12:05.583Z,49.79
2022-11-06T16:14:39.301Z,49.81
2022-11-06T16:17:12.464Z,49.84
2022-11-06T16:19:45.195Z,49.79
2022-11-06T16:22:18.490Z,49.85
2022-11-06T16:24:51.495Z,49.85
2022-11-06T16:27:24.558Z,49.86
2022-11-06T16:29:57.337Z,49.86
2022-11-06T16:32:30.475Z,49.89
2022-11-06T16:35:03.326Z,49.98
2022-11-06T16:37:36.345Z,49.95
2022-11-06T16:40:09.552Z,49.92
2022-11-06T16:42:42.460Z,49.49
2022-11-06T16:45:15.486Z,49.30
2022-11-06T16:47:48.470Z,49.37
2022-11-06T16:50:21.481Z,49.32
2022-11-06T16:53:00.772Z,49.34
2022-11-06T16:55:33.523Z,49.24
2022-11-06T16:58:06.315Z,49.25
2022-11-06T17:00:39.349Z,49.34
2022-11-06T17:03:12.833Z,49.47
2022-11-06T17:05:45.366Z,49.54
2022-11-06T17:08:18.416Z,49.62
2022-11-06T17:10:51.204Z,49.65
2022-11-06T17:13:24.211Z,49.65
2022-11-06T17:16:11.409Z,49.72
2022-11-06T17:18:44.405Z,49.73
2022-11-06T17:21:17.523Z,49.79
2022-11-06T17:23:50.524Z,49.81
2022-11-06T17:26:23.490Z,49.84
2022-11-06T17:28:56.281Z,49.84
2022-11-06T17:31:29.433Z,49.86
2022-11-06T17:34:02.454Z,49.90
2022-11-06T17:36:35.261Z,49.92
2022-11-06T17:39:08.470Z,49.90
2022-11-06T17:41:41.417Z,49.92
2022-11-06T17:44:14.549Z,49.93
2022-11-06T17:46:47.251Z,49.93
2022-11-06T17:49:20.481Z,49.97
2022-11-06T17:51:53.802Z,49.99
2022-11-06T17:54:26.570Z,49.99
2022-11-06T17:56:59.421Z,50.01
2022-11-06T17:59:46.584Z,50.00
2022-11-06T18:02:40.788Z,49.98
2022-11-06T18:04:52.356Z,49.98
2022-11-06T18:07:25.634Z,50.03
2022-11-06T18:09:58.310Z,50.04
2022-11-06T18:12:31.534Z,50.05
2022-11-06T18:15:04.300Z,50.05
2022-11-06T18:17:37.394Z,50.06
2022-11-06T18:20:10.324Z,50.08
2022-11-06T18:22:43.524Z,50.09
2022-11-06T18:25:16.805Z,50.10
2022-11-06T18:27:49.724Z,50.12
2022-11-06T18:30:22.635Z,50.12
2022-11-06T18:32:55.723Z,50.15
2022-11-06T18:35:28.613Z,50.09
2022-11-06T18:38:01.765Z,50.17
2022-11-06T18:40:34.515Z,50.20
2022-11-06T18:43:07.775Z,50.24
2022-11-06T18:45:54.278Z,50.21
2022-11-06T18:48:27.770Z,50.23
2022-11-06T18:51:00.699Z,50.20
2022-11-06T18:53:33.539Z,50.17
2022-11-06T18:56:06.525Z,50.24
2022-11-06T18:58:39.428Z,50.25
2022-11-06T19:01:12.469Z,50.30
2022-11-06T19:03:45.579Z,50.36
2022-11-06T19:06:18.666Z,50.31
2022-11-06T19:08:51.564Z,50.27
2022-11-06T19:11:24.461Z,50.34
2022-11-06T19:13:57.665Z,50.32
2022-11-06T19:16:30.382Z,50.36
2022-11-06T19:21:36.760Z,50.35
2022-11-06T19:24:09.565Z,50.24
2022-11-06T19:26:42.778Z,50.33
2022-11-06T19:29:15.811Z,50.42
2022-11-06T19:31:48.749Z,50.37
2022-11-06T19:34:21.756Z,50.38
2022-11-06T19:36:54.415Z,50.37
2022-11-06T19:39:27.564Z,50.41
2022-11-06T19:42:00.740Z,50.39
2022-11-06T19:44:33.778Z,50.38
2022-11-06T19:47:06.696Z,50.34
2022-11-06T19:49:39.740Z,50.44
2022-11-06T19:52:41.600Z,50.41
2022-11-06T19:54:45.451Z,50.41
2022-11-06T19:57:29.312Z,50.43
2022-11-06T19:59:51.747Z,50.40
2022-11-06T20:02:25.048Z,50.38
2022-11-06T20:04:58.826Z,50.46
2022-11-06T20:07:31.722Z,50.42
2022-11-06T20:10:04.799Z,50.42
2022-11-06T20:12:37.765Z,50.45
2022-11-06T20:15:10.481Z,50.45
2022-11-06T20:17:43.593Z,50.37
2022-11-06T20:20:16.584Z,50.47
2022-11-06T20:22:49.658Z,50.42
2022-11-06T20:25:22.630Z,50.45
2022-11-06T20:27:55.721Z,50.44
2022-11-06T20:30:28.607Z,50.39
2022-11-06T20:33:01.881Z,50.38
2022-11-06T20:35:34.673Z,50.41
2022-11-06T20:38:07.803Z,50.44
2022-11-06T20:40:40.586Z,50.37
2022-11-06T20:43:13.823Z,50.45
2022-11-06T20:45:46.560Z,50.42
2022-11-06T20:48:19.853Z,50.44
2022-11-06T20:50:52.678Z,50.39
2022-11-06T20:53:25.533Z,50.42
2022-11-06T20:55:58.829Z,50.39
2022-11-06T20:58:31.895Z,50.36
2022-11-06T21:01:05.064Z,50.43
2022-11-06T21:03:37.660Z,50.40
2022-11-06T21:06:10.855Z,50.38
2022-11-06T21:08:43.565Z,50.38
2022-11-06T21:11:16.893Z,50.41
2022-11-06T21:13:49.990Z,50.39
2022-11-06T21:16:22.827Z,50.37
2022-11-06T21:18:55.924Z,50.42
2022-11-06T21:21:29.120Z,50.40
2022-11-06T21:24:02.974Z,50.46
2022-11-06T21:26:35.729Z,50.46
2022-11-06T21:29:08.896Z,50.40
2022-11-06T21:31:48.663Z,50.44
2022-11-06T21:34:14.897Z,50.44
2022-11-06T21:36:47.774Z,50.42
2022-11-06T21:39:20.754Z,50.45
2022-11-06T21:41:53.789Z,49.87
2022-11-06T21:44:27.002Z,49.55
2022-11-06T21:46:59.978Z,49.35
2022-11-06T21:49:32.667Z,49.27
2022-11-06T21:52:05.905Z,49.59
2022-11-06T21:54:38.637Z,49.69
2022-11-06T21:57:11.705Z,49.77
2022-11-06T21:59:44.890Z,49.96
2022-11-06T22:02:17.763Z,49.98
2022-11-06T22:07:41.046Z,50.14
2022-11-06T22:10:13.823Z,50.06
2022-11-06T22:12:46.697Z,50.13
2022-11-06T22:15:20.033Z,50.19
2022-11-06T22:17:53.070Z,50.26
2022-11-06T22:20:25.990Z,50.34
2022-11-06T22:23:00.109Z,50.33
2022-11-06T22:25:33.023Z,50.33
2022-11-06T22:28:05.897Z,50.31
2022-11-06T22:30:38.806Z,50.33
2022-11-06T22:33:12.403Z,50.28
2022-11-06T22:35:48.045Z,50.29
2022-11-06T22:38:21.042Z,50.27
2022-11-06T22:40:54.085Z,50.29
2022-11-06T22:43:26.974Z,50.29
2022-11-06T22:46:00.153Z,50.34
2022-11-06T22:48:34.042Z,50.39
2022-11-06T22:51:07.105Z,50.35
2022-11-06T22:53:40.016Z,50.34
2022-11-06T22:56:13.045Z,50.46
2022-11-06T22:58:46.024Z,50.42
2022-11-06T23:01:22.152Z,50.45
2022-11-06T23:03:54.993Z,50.46
2022-11-06T23:06:28.328Z,50.51
2022-11-06T23:09:02.017Z,50.49
2022-11-06T23:11:35.072Z,50.63
2022-11-06T23:14:09.393Z,50.62
2022-11-06T23:16:41.086Z,50.65
2022-11-06T23:19:14.075Z,50.65
2022-11-06T23:21:46.847Z,50.67
2022-11-06T23:24:20.028Z,50.66
2022-11-06T23:26:56.105Z,50.74
2022-11-06T23:29:35.124Z,50.74
2022-11-06T23:32:08.156Z,50.78
2022-11-06T23:34:41.048Z,50.82
2022-11-06T23:37:14.191Z,50.82
2022-11-06T23:39:47.145Z,50.83
2022-11-06T23:42:20.193Z,50.90
2022-11-06T23:44:53.135Z,50.86
2022-11-06T23:47:26.169Z,50.91
2022-11-06T23:49:59.154Z,50.93
2022-11-06T23:52:32.078Z,51.08
2022-11-06T23:55:05.171Z,51.06
2022-11-06T23:57:38.209Z,51.04
